createdAt,value
2018-11-05T00:00:30.194Z,1011.95
2018-11-05T00:01:30.175Z,1011.99
2018-11-05T00:02:30.149Z,1011.97
2018-11-05T00:03:30.133Z,1011.96
2018-11-05T00:04:30.114Z,1011.95
2018-11-05T00:05:30.097Z,1011.96
2018-11-05T00:06:30.078Z,1011.92
2018-11-05T00:07:30.061Z,1011.91
2018-11-05T00:08:30.047Z,1011.89
2018-11-05T00:09:30.021Z,1011.89
2018-11-05T00:10:30.004Z,1011.85
2018-11-05T00:11:29.986Z,1011.90
2018-11-05T00:12:29.972Z,1011.90
2018-11-05T00:13:29.946Z,1011.86
2018-11-05T00:14:29.928Z,1011.85
2018-11-05T00:15:29.913Z,1011.83
2018-11-05T00:16:29.888Z,1011.80
2018-11-05T00:17:29.872Z,1011.82
2018-11-05T00:18:29.858Z,1011.80
2018-11-05T00:19:29.838Z,1011.80
2018-11-05T00:20:29.818Z,1011.83
2018-11-05T00:21:29.809Z,1011.73
2018-11-05T00:22:29.788Z,1011.73
2018-11-05T00:23:29.763Z,1011.74
2018-11-05T00:24:29.748Z,1011.73
2018-11-05T00:25:29.727Z,1011.73
2018-11-05T00:26:29.707Z,1011.75
2018-11-05T00:27:29.709Z,1011.71
2018-11-05T00:28:29.675Z,1011.72
2018-11-05T00:29:29.652Z,1011.68
2018-11-05T00:30:29.631Z,1011.66
2018-11-05T00:31:29.616Z,1011.63
2018-11-05T00:32:29.599Z,1011.60
2018-11-05T00:33:29.575Z,1011.63
2018-11-05T00:34:29.564Z,1011.58
2018-11-05T00:35:29.540Z,1011.55
2018-11-05T00:36:29.520Z,1011.57
2018-11-05T00:37:29.512Z,1011.57
2018-11-05T00:38:29.488Z,1011.55
2018-11-05T00:39:29.470Z,1011.56
2018-11-05T00:40:29.450Z,1011.49
2018-11-05T00:41:29.432Z,1011.51
2018-11-05T00:42:29.416Z,1011.47
2018-11-05T00:43:29.394Z,1011.52
2018-11-05T00:44:29.372Z,1011.57
2018-11-05T00:45:29.370Z,1011.56
2018-11-05T00:46:29.338Z,1011.52
2018-11-05T00:47:29.330Z,1011.56
2018-11-05T00:48:29.304Z,1011.52
2018-11-05T00:49:29.282Z,1011.58
2018-11-05T00:50:29.265Z,1011.62
2018-11-05T00:51:29.252Z,1011.65
2018-11-05T00:52:29.228Z,1011.62
2018-11-05T00:53:29.206Z,1011.64
2018-11-05T00:54:29.191Z,1011.61
2018-11-05T00:55:29.174Z,1011.64
2018-11-05T00:56:29.156Z,1011.65
2018-11-05T00:57:29.138Z,1011.63
2018-11-05T00:58:29.175Z,1011.60
2018-11-05T00:59:29.101Z,1011.56
2018-11-05T01:00:29.079Z,1011.48
2018-11-05T01:01:29.065Z,1011.48
2018-11-05T01:02:29.044Z,1011.41
2018-11-05T01:03:29.026Z,1011.41
2018-11-05T01:04:29.006Z,1011.42
2018-11-05T01:05:28.990Z,1011.37
2018-11-05T01:06:28.974Z,1011.36
2018-11-05T01:07:28.953Z,1011.38
2018-11-05T01:08:28.932Z,1011.38
2018-11-05T01:09:28.917Z,1011.38
2018-11-05T01:10:28.892Z,1011.38
2018-11-05T01:11:28.878Z,1011.34
2018-11-05T01:12:28.863Z,1011.37
2018-11-05T01:13:28.846Z,1011.35
2018-11-05T01:14:28.824Z,1011.39
2018-11-05T01:15:28.816Z,1011.36
2018-11-05T01:16:28.784Z,1011.39
2018-11-05T01:17:28.770Z,1011.40
2018-11-05T01:18:28.747Z,1011.42
2018-11-05T01:19:28.730Z,1011.38
2018-11-05T01:20:28.713Z,1011.39
2018-11-05T01:21:28.694Z,1011.43
2018-11-05T01:22:28.680Z,1011.48
2018-11-05T01:23:28.658Z,1011.44
2018-11-05T01:24:28.639Z,1011.44
2018-11-05T01:25:28.624Z,1011.43
2018-11-05T01:26:28.607Z,1011.45
2018-11-05T01:27:28.590Z,1011.41
2018-11-05T01:28:28.567Z,1011.45
2018-11-05T01:29:28.547Z,1011.41
2018-11-05T01:30:28.530Z,1011.42
2018-11-05T01:31:28.513Z,1011.38
2018-11-05T01:32:28.490Z,1011.37
2018-11-05T01:33:28.480Z,1011.27
2018-11-05T01:34:28.454Z,1011.31
2018-11-05T01:35:28.441Z,1011.36
2018-11-05T01:36:28.418Z,1011.32
2018-11-05T01:37:28.400Z,1011.33
2018-11-05T01:38:28.387Z,1011.32
2018-11-05T01:39:28.368Z,1011.34
2018-11-05T01:40:28.347Z,1011.31
2018-11-05T01:41:28.325Z,1011.32
2018-11-05T01:42:28.307Z,1011.29
2018-11-05T01:43:28.292Z,1011.24
2018-11-05T01:44:28.269Z,1011.26
2018-11-05T01:45:28.256Z,1011.32
2018-11-05T01:46:28.235Z,1011.32
2018-11-05T01:47:28.219Z,1011.29
2018-11-05T01:48:28.199Z,1011.28
2018-11-05T01:49:28.183Z,1011.29
2018-11-05T01:50:28.161Z,1011.31
2018-11-05T01:51:28.139Z,1011.32
2018-11-05T01:52:28.128Z,1011.31
2018-11-05T01:53:28.109Z,1011.26
2018-11-05T01:54:28.092Z,1011.28
2018-11-05T01:55:28.080Z,1011.31
2018-11-05T01:56:28.053Z,1011.26
2018-11-05T01:57:28.035Z,1011.26
2018-11-05T01:58:28.017Z,1011.25
2018-11-05T01:59:28.001Z,1011.22
2018-11-05T02:00:27.982Z,1011.15
2018-11-05T02:01:27.970Z,1011.17
2018-11-05T02:02:27.943Z,1011.11
2018-11-05T02:03:27.925Z,1011.14
2018-11-05T02:04:27.909Z,1011.09
2018-11-05T02:05:27.889Z,1011.14
2018-11-05T02:06:27.870Z,1011.11
2018-11-05T02:07:27.856Z,1011.15
2018-11-05T02:08:27.830Z,1011.14
2018-11-05T02:09:27.814Z,1011.09
2018-11-05T02:10:27.994Z,1011.09
2018-11-05T02:11:27.780Z,1011.08
2018-11-05T02:12:27.762Z,1011.05
2018-11-05T02:13:27.845Z,1011.06
2018-11-05T02:14:27.723Z,1011.04
2018-11-05T02:15:27.704Z,1011.11
2018-11-05T02:16:27.682Z,1011.09
2018-11-05T02:17:27.671Z,1011.09
2018-11-05T02:18:27.651Z,1011.03
2018-11-05T02:19:27.632Z,1011.04
2018-11-05T02:20:27.613Z,1011.08
2018-11-05T02:21:27.594Z,1011.05
2018-11-05T02:22:27.580Z,1011.01
2018-11-05T02:23:27.562Z,1011.00
2018-11-05T02:24:27.541Z,1011.05
2018-11-05T02:25:27.520Z,1011.05
2018-11-05T02:26:27.504Z,1011.06
2018-11-05T02:27:27.567Z,1011.10
2018-11-05T02:28:27.466Z,1011.10
2018-11-05T02:29:27.451Z,1011.09
2018-11-05T02:30:27.431Z,1011.05
2018-11-05T02:31:27.412Z,1011.05
2018-11-05T02:32:27.400Z,1011.05
2018-11-05T02:33:27.376Z,1011.04
2018-11-05T02:34:27.356Z,1011.04
2018-11-05T02:35:27.340Z,1010.98
2018-11-05T02:36:27.320Z,1010.96
2018-11-05T02:37:27.306Z,1010.97
2018-11-05T02:38:27.288Z,1010.99
2018-11-05T02:39:27.266Z,1011.03
2018-11-05T02:40:27.250Z,1010.99
2018-11-05T02:41:27.229Z,1011.01
2018-11-05T02:42:27.211Z,1011.01
2018-11-05T02:43:27.193Z,1011.05
2018-11-05T02:44:27.179Z,1011.03
2018-11-05T02:45:27.156Z,1011.01
2018-11-05T02:46:27.141Z,1010.94
2018-11-05T02:47:27.121Z,1010.92
2018-11-05T02:48:27.100Z,1010.92
2018-11-05T02:49:27.086Z,1010.90
2018-11-05T02:50:27.068Z,1010.94
2018-11-05T02:51:27.050Z,1010.94
2018-11-05T02:52:27.030Z,1010.98
2018-11-05T02:53:27.012Z,1011.00
2018-11-05T02:54:27.007Z,1011.03
2018-11-05T02:55:26.978Z,1011.05
2018-11-05T02:56:26.956Z,1011.08
2018-11-05T02:57:26.942Z,1011.06
2018-11-05T02:58:26.924Z,1011.00
2018-11-05T02:59:26.902Z,1011.02
2018-11-05T03:00:26.886Z,1011.04
2018-11-05T03:01:26.867Z,1011.04
2018-11-05T03:02:26.850Z,1011.02
2018-11-05T03:03:26.956Z,1011.00
2018-11-05T03:04:26.811Z,1011.10
2018-11-05T03:05:26.796Z,1011.09
2018-11-05T03:06:26.777Z,1011.06
2018-11-05T03:07:26.756Z,1011.12
2018-11-05T03:08:26.739Z,1011.14
2018-11-05T03:09:26.724Z,1011.12
2018-11-05T03:10:26.706Z,1011.09
2018-11-05T03:11:26.686Z,1011.06
2018-11-05T03:12:26.666Z,1011.10
2018-11-05T03:13:26.648Z,1011.10
2018-11-05T03:14:26.632Z,1011.11
2018-11-05T03:15:26.614Z,1011.05
2018-11-05T03:16:26.597Z,1011.11
2018-11-05T03:17:26.576Z,1011.08
2018-11-05T03:18:26.560Z,1011.09
2018-11-05T03:19:26.540Z,1011.09
2018-11-05T03:20:26.520Z,1011.10
2018-11-05T03:21:26.506Z,1011.10
2018-11-05T03:22:26.486Z,1011.15
2018-11-05T03:23:26.468Z,1011.22
2018-11-05T03:24:26.437Z,1011.18
2018-11-05T03:25:26.428Z,1011.16
2018-11-05T03:26:26.410Z,1011.14
2018-11-05T03:27:26.399Z,1011.13
2018-11-05T03:28:26.375Z,1011.15
2018-11-05T03:29:26.361Z,1011.13
2018-11-05T03:30:26.344Z,1011.06
2018-11-05T03:31:26.324Z,1011.09
2018-11-05T03:32:26.298Z,1011.09
2018-11-05T03:33:26.281Z,1011.09
2018-11-05T03:34:26.266Z,1011.03
2018-11-05T03:35:26.252Z,1011.06
2018-11-05T03:36:26.230Z,1011.05
2018-11-05T03:37:26.214Z,1011.06
2018-11-05T03:38:26.202Z,1011.09
2018-11-05T03:39:26.178Z,1011.09
2018-11-05T03:40:26.158Z,1011.07
2018-11-05T03:41:26.137Z,1011.08
2018-11-05T03:42:26.123Z,1011.13
2018-11-05T03:43:26.098Z,1011.14
2018-11-05T03:44:26.086Z,1011.12
2018-11-05T03:45:26.064Z,1011.11
2018-11-05T03:46:26.042Z,1011.11
2018-11-05T03:47:26.030Z,1011.05
2018-11-05T03:48:26.008Z,1011.06
2018-11-05T03:49:25.994Z,1011.01
2018-11-05T03:50:25.978Z,1011.03
2018-11-05T03:51:25.957Z,1011.02
2018-11-05T03:52:25.935Z,1011.00
2018-11-05T03:53:25.923Z,1011.00
2018-11-05T03:54:25.899Z,1010.97
2018-11-05T03:55:25.945Z,1010.94
2018-11-05T03:56:25.871Z,1010.93
2018-11-05T03:57:25.844Z,1010.95
2018-11-05T03:58:25.824Z,1010.98
2018-11-05T03:59:25.810Z,1010.92
2018-11-05T04:00:25.792Z,1010.92
2018-11-05T04:01:25.783Z,1010.93
2018-11-05T04:02:25.759Z,1010.88
2018-11-05T04:03:25.901Z,1010.84
2018-11-05T04:04:25.716Z,1010.81
2018-11-05T04:05:25.700Z,1010.83
2018-11-05T04:06:25.683Z,1010.77
2018-11-05T04:07:25.662Z,1010.73
2018-11-05T04:08:25.640Z,1010.72
2018-11-05T04:09:25.624Z,1010.73
2018-11-05T04:10:25.604Z,1010.76
2018-11-05T04:11:25.593Z,1010.78
2018-11-05T04:12:25.569Z,1010.75
2018-11-05T04:13:25.550Z,1010.75
2018-11-05T04:14:25.538Z,1010.73
2018-11-05T04:15:25.614Z,1010.73
2018-11-05T04:16:25.497Z,1010.70
2018-11-05T04:17:25.474Z,1010.69
2018-11-05T04:18:25.460Z,1010.65
2018-11-05T04:19:25.444Z,1010.65
2018-11-05T04:20:25.432Z,1010.63
2018-11-05T04:21:25.403Z,1010.58
2018-11-05T04:22:25.388Z,1010.56
2018-11-05T04:23:25.371Z,1010.58
2018-11-05T04:24:25.349Z,1010.57
2018-11-05T04:25:25.333Z,1010.63
2018-11-05T04:26:25.312Z,1010.61
2018-11-05T04:27:25.301Z,1010.63
2018-11-05T04:28:25.273Z,1010.53
2018-11-05T04:29:25.262Z,1010.58
2018-11-05T04:30:25.242Z,1010.55
2018-11-05T04:31:25.222Z,1010.58
2018-11-05T04:32:25.206Z,1010.48
2018-11-05T04:33:25.186Z,1010.46
2018-11-05T04:34:25.170Z,1010.48
2018-11-05T04:35:25.150Z,1010.47
2018-11-05T04:36:25.139Z,1010.48
2018-11-05T04:37:25.113Z,1010.46
2018-11-05T04:38:25.104Z,1010.53
2018-11-05T04:39:25.078Z,1010.56
2018-11-05T04:40:25.056Z,1010.52
2018-11-05T04:41:25.040Z,1010.52
2018-11-05T04:42:25.023Z,1010.45
2018-11-05T04:43:25.007Z,1010.43
2018-11-05T04:44:24.982Z,1010.40
2018-11-05T04:45:24.968Z,1010.42
2018-11-05T04:46:24.947Z,1010.41
2018-11-05T04:47:24.929Z,1010.41
2018-11-05T04:48:24.912Z,1010.43
2018-11-05T04:49:24.895Z,1010.46
2018-11-05T04:50:24.877Z,1010.45
2018-11-05T04:51:24.860Z,1010.45
2018-11-05T04:52:24.832Z,1010.43
2018-11-05T04:53:24.818Z,1010.38
2018-11-05T04:54:24.800Z,1010.41
2018-11-05T04:56:13.801Z,1010.41
2018-11-05T04:57:13.772Z,1010.39
2018-11-05T04:58:13.753Z,1010.39
2018-11-05T04:59:13.734Z,1010.39
2018-11-05T05:00:13.716Z,1010.40
2018-11-05T05:01:13.695Z,1010.39
2018-11-05T05:02:13.679Z,1010.39
2018-11-05T05:03:13.712Z,1010.40
2018-11-05T05:04:13.643Z,1010.38
2018-11-05T05:05:13.628Z,1010.38
2018-11-05T05:06:13.612Z,1010.40
2018-11-05T05:07:13.588Z,1010.39
2018-11-05T05:08:13.572Z,1010.37
2018-11-05T05:09:13.551Z,1010.36
2018-11-05T05:10:13.527Z,1010.33
2018-11-05T05:11:13.516Z,1010.36
2018-11-05T05:12:13.502Z,1010.36
2018-11-05T05:13:13.480Z,1010.39
2018-11-05T05:14:13.469Z,1010.37
2018-11-05T05:15:13.443Z,1010.42
2018-11-05T05:16:13.477Z,1010.39
2018-11-05T05:17:13.405Z,1010.42
2018-11-05T05:18:13.384Z,1010.41
2018-11-05T05:19:13.371Z,1010.49
2018-11-05T05:20:13.346Z,1010.52
2018-11-05T05:21:13.331Z,1010.56
2018-11-05T05:22:13.344Z,1010.57
2018-11-05T05:23:13.295Z,1010.56
2018-11-05T05:24:13.276Z,1010.60
2018-11-05T05:25:13.255Z,1010.57
2018-11-05T05:26:13.238Z,1010.56
2018-11-05T05:27:13.221Z,1010.59
2018-11-05T05:28:13.205Z,1010.62
2018-11-05T05:29:13.187Z,1010.60
2018-11-05T05:30:13.167Z,1010.59
2018-11-05T05:31:13.146Z,1010.59
2018-11-05T05:32:13.124Z,1010.57
2018-11-05T05:33:13.298Z,1010.53
2018-11-05T05:34:13.091Z,1010.50
2018-11-05T05:35:13.078Z,1010.47
2018-11-05T05:36:13.052Z,1010.43
2018-11-05T05:37:13.035Z,1010.46
2018-11-05T05:38:13.017Z,1010.47
2018-11-05T05:39:12.999Z,1010.50
2018-11-05T05:40:12.980Z,1010.45
2018-11-05T05:41:13.008Z,1010.37
2018-11-05T05:42:12.952Z,1010.32
2018-11-05T05:43:12.923Z,1010.33
2018-11-05T05:44:12.905Z,1010.33
2018-11-05T05:45:12.894Z,1010.33
2018-11-05T05:46:12.873Z,1010.37
2018-11-05T05:47:12.847Z,1010.37
2018-11-05T05:48:12.835Z,1010.37
2018-11-05T05:49:12.818Z,1010.34
2018-11-05T05:50:12.915Z,1010.33
2018-11-05T05:51:12.782Z,1010.30
2018-11-05T05:52:12.756Z,1010.33
2018-11-05T05:53:12.741Z,1010.32
2018-11-05T05:54:12.721Z,1010.30
2018-11-05T05:55:12.704Z,1010.32
2018-11-05T05:56:12.684Z,1010.31
2018-11-05T05:57:12.665Z,1010.31
2018-11-05T05:58:12.649Z,1010.32
2018-11-05T05:59:12.631Z,1010.37
2018-11-05T06:00:12.616Z,1010.34
2018-11-05T06:01:12.597Z,1010.31
2018-11-05T06:02:12.574Z,1010.38
2018-11-05T06:03:12.557Z,1010.34
2018-11-05T06:04:12.534Z,1010.34
2018-11-05T06:05:12.519Z,1010.28
2018-11-05T06:06:12.606Z,1010.30
2018-11-05T06:07:12.484Z,1010.23
2018-11-05T06:08:12.462Z,1010.26
2018-11-05T06:09:12.444Z,1010.27
2018-11-05T06:10:12.430Z,1010.26
2018-11-05T06:11:12.409Z,1010.32
2018-11-05T06:12:12.386Z,1010.37
2018-11-05T06:13:12.372Z,1010.41
2018-11-05T06:14:12.355Z,1010.44
2018-11-05T06:15:12.335Z,1010.47
2018-11-05T06:16:12.315Z,1010.40
2018-11-05T06:17:12.297Z,1010.40
2018-11-05T06:18:12.276Z,1010.40
2018-11-05T06:19:12.259Z,1010.43
2018-11-05T06:20:12.239Z,1010.42
2018-11-05T06:21:12.225Z,1010.40
2018-11-05T06:22:12.204Z,1010.39
2018-11-05T06:23:12.193Z,1010.43
2018-11-05T06:24:12.171Z,1010.45
2018-11-05T06:25:12.150Z,1010.42
2018-11-05T06:26:12.126Z,1010.38
2018-11-05T06:27:12.112Z,1010.37
2018-11-05T06:28:12.089Z,1010.42
2018-11-05T06:29:12.075Z,1010.45
2018-11-05T06:30:12.060Z,1010.42
2018-11-05T06:31:12.040Z,1010.45
2018-11-05T06:32:12.018Z,1010.48
2018-11-05T06:33:11.999Z,1010.53
2018-11-05T06:34:11.981Z,1010.52
2018-11-05T06:35:12.027Z,1010.51
2018-11-05T06:36:11.941Z,1010.56
2018-11-05T06:37:11.926Z,1010.50
2018-11-05T06:38:11.907Z,1010.56
2018-11-05T06:39:11.885Z,1010.57
2018-11-05T06:40:11.874Z,1010.57
2018-11-05T06:41:11.919Z,1010.61
2018-11-05T06:42:11.830Z,1010.62
2018-11-05T06:43:11.813Z,1010.66
2018-11-05T06:44:11.876Z,1010.71
2018-11-05T06:45:11.859Z,1010.67
2018-11-05T06:46:11.754Z,1010.71
2018-11-05T06:47:11.741Z,1010.73
2018-11-05T06:48:11.724Z,1010.73
2018-11-05T06:49:11.700Z,1010.71
2018-11-05T06:50:11.688Z,1010.76
2018-11-05T06:51:11.668Z,1010.71
2018-11-05T06:52:11.648Z,1010.65
2018-11-05T06:53:11.632Z,1010.62
2018-11-05T06:54:11.612Z,1010.65
2018-11-05T06:55:11.588Z,1010.68
2018-11-05T06:56:11.574Z,1010.72
2018-11-05T06:57:11.552Z,1010.72
2018-11-05T06:58:11.534Z,1010.71
2018-11-05T06:59:11.514Z,1010.70
2018-11-05T07:00:11.502Z,1010.67
2018-11-05T07:01:11.482Z,1010.60
2018-11-05T07:02:11.465Z,1010.65
2018-11-05T07:03:11.448Z,1010.67
2018-11-05T07:04:11.425Z,1010.64
2018-11-05T07:05:11.414Z,1010.64
2018-11-05T07:06:11.389Z,1010.62
2018-11-05T07:07:11.369Z,1010.65
2018-11-05T07:08:11.348Z,1010.67
2018-11-05T07:09:11.330Z,1010.65
2018-11-05T07:10:11.311Z,1010.63
2018-11-05T07:11:11.351Z,1010.65
2018-11-05T07:12:11.276Z,1010.67
2018-11-05T07:13:11.256Z,1010.66
2018-11-05T07:14:11.242Z,1010.64
2018-11-05T07:15:11.217Z,1010.64
2018-11-05T07:16:11.201Z,1010.61
2018-11-05T07:17:11.182Z,1010.62
2018-11-05T07:18:11.191Z,1010.66
2018-11-05T07:19:11.595Z,1010.67
2018-11-05T07:20:11.127Z,1010.65
2018-11-05T07:21:11.112Z,1010.71
2018-11-05T07:22:11.092Z,1010.74
2018-11-05T07:23:11.070Z,1010.77
2018-11-05T07:24:11.052Z,1010.80
2018-11-05T07:25:11.039Z,1010.88
2018-11-05T07:26:11.015Z,1010.89
2018-11-05T07:27:11.005Z,1010.89
2018-11-05T07:28:10.982Z,1010.84
2018-11-05T07:29:10.961Z,1010.86
2018-11-05T07:30:10.938Z,1010.87
2018-11-05T07:31:10.920Z,1010.90
2018-11-05T07:32:10.905Z,1010.94
2018-11-05T07:33:10.956Z,1010.91
2018-11-05T07:34:10.920Z,1010.91
2018-11-05T07:35:10.845Z,1010.85
2018-11-05T07:36:10.829Z,1010.82
2018-11-05T07:37:10.810Z,1010.82
2018-11-05T07:38:10.792Z,1010.78
2018-11-05T07:39:10.777Z,1010.80
2018-11-05T07:40:10.754Z,1010.82
2018-11-05T07:41:10.740Z,1010.81
2018-11-05T07:42:10.759Z,1010.85
2018-11-05T07:43:10.707Z,1010.81
2018-11-05T07:44:10.682Z,1010.77
2018-11-05T07:45:10.660Z,1010.75
2018-11-05T07:46:10.648Z,1010.77
2018-11-05T07:47:10.626Z,1010.79
2018-11-05T07:48:10.606Z,1010.86
2018-11-05T07:49:10.591Z,1010.90
2018-11-05T07:50:10.703Z,1010.82
2018-11-05T07:51:10.551Z,1010.85
2018-11-05T07:52:10.537Z,1010.78
2018-11-05T07:53:10.516Z,1010.77
2018-11-05T07:54:10.498Z,1010.81
2018-11-05T07:55:10.477Z,1010.81
2018-11-05T07:56:10.499Z,1010.75
2018-11-05T07:57:10.444Z,1010.71
2018-11-05T07:58:10.422Z,1010.72
2018-11-05T07:59:10.401Z,1010.70
2018-11-05T08:00:10.385Z,1010.64
2018-11-05T08:01:10.367Z,1010.69
2018-11-05T08:02:10.347Z,1010.65
2018-11-05T08:03:10.330Z,1010.64
2018-11-05T08:04:10.326Z,1010.67
2018-11-05T08:05:10.295Z,1010.68
2018-11-05T08:06:10.275Z,1010.69
2018-11-05T08:07:10.255Z,1010.71
2018-11-05T08:08:10.337Z,1010.69
2018-11-05T08:09:10.231Z,1010.63
2018-11-05T08:10:10.205Z,1010.61
2018-11-05T08:11:10.186Z,1010.65
2018-11-05T08:12:10.169Z,1010.64
2018-11-05T08:13:10.147Z,1010.67
2018-11-05T08:14:10.136Z,1010.66
2018-11-05T08:15:10.105Z,1010.70
2018-11-05T08:16:10.093Z,1010.71
2018-11-05T08:17:10.073Z,1010.68
2018-11-05T08:18:10.061Z,1010.69
2018-11-05T08:19:10.039Z,1010.68
2018-11-05T08:20:10.029Z,1010.69
2018-11-05T08:21:10.005Z,1010.65
2018-11-05T08:22:09.989Z,1010.65
2018-11-05T08:23:09.968Z,1010.69
2018-11-05T08:24:09.954Z,1010.67
2018-11-05T08:25:09.937Z,1010.67
2018-11-05T08:26:09.915Z,1010.68
2018-11-05T08:27:09.897Z,1010.69
2018-11-05T08:28:09.890Z,1010.67
2018-11-05T08:29:09.867Z,1010.65
2018-11-05T08:30:09.838Z,1010.66
2018-11-05T08:31:09.825Z,1010.68
2018-11-05T08:32:09.803Z,1010.69
2018-11-05T08:33:09.785Z,1010.76
2018-11-05T08:34:09.825Z,1010.76
2018-11-05T08:35:09.748Z,1010.73
2018-11-05T08:36:09.732Z,1010.73
2018-11-05T08:37:09.716Z,1010.68
2018-11-05T08:38:09.698Z,1010.74
2018-11-05T08:39:09.679Z,1010.82
2018-11-05T08:40:09.722Z,1010.76
2018-11-05T08:41:09.641Z,1010.75
2018-11-05T08:42:09.625Z,1010.71
2018-11-05T08:43:09.614Z,1010.80
2018-11-05T08:44:09.593Z,1010.76
2018-11-05T08:45:09.571Z,1010.81
2018-11-05T08:46:09.553Z,1010.80
2018-11-05T08:47:09.536Z,1010.82
2018-11-05T08:48:09.515Z,1010.71
2018-11-05T08:49:09.501Z,1010.72
2018-11-05T08:50:09.548Z,1010.79
2018-11-05T08:51:09.756Z,1010.77
2018-11-05T08:52:09.454Z,1010.78
2018-11-05T08:53:09.428Z,1010.73
2018-11-05T08:54:09.488Z,1010.66
2018-11-05T08:55:09.405Z,1010.59
2018-11-05T08:56:09.377Z,1010.64
2018-11-05T08:57:09.369Z,1010.65
2018-11-05T08:58:09.344Z,1010.63
2018-11-05T08:59:09.334Z,1010.65
2018-11-05T09:00:09.357Z,1010.66
2018-11-05T09:01:09.394Z,1010.65
2018-11-05T09:02:09.283Z,1010.78
2018-11-05T09:03:09.303Z,1010.87
2018-11-05T09:04:09.241Z,1010.81
2018-11-05T09:05:09.296Z,1010.81
2018-11-05T09:06:09.200Z,1010.83
2018-11-05T09:07:09.194Z,1010.87
2018-11-05T09:08:09.196Z,1010.88
2018-11-05T09:09:09.152Z,1010.89
2018-11-05T09:10:09.157Z,1010.88
2018-11-05T09:11:09.645Z,1010.90
2018-11-05T09:12:09.136Z,1010.93
2018-11-05T09:13:09.086Z,1011.00
2018-11-05T09:14:09.070Z,1010.97
2018-11-05T09:15:09.055Z,1010.99
2018-11-05T09:16:09.080Z,1010.99
2018-11-05T09:17:09.020Z,1010.95
2018-11-05T09:18:09.003Z,1010.99
2018-11-05T09:19:08.994Z,1011.00
2018-11-05T09:20:08.976Z,1010.98
2018-11-05T09:21:08.956Z,1010.94
2018-11-05T09:22:08.945Z,1010.95
2018-11-05T09:23:08.934Z,1010.89
2018-11-05T09:24:08.912Z,1010.89
2018-11-05T09:25:08.897Z,1010.89
2018-11-05T09:26:08.884Z,1010.88
2018-11-05T09:27:08.903Z,1010.91
2018-11-05T09:28:08.855Z,1010.95
2018-11-05T09:29:08.838Z,1010.91
2018-11-05T09:30:08.824Z,1010.90
2018-11-05T09:31:08.808Z,1010.87
2018-11-05T09:32:08.806Z,1010.84
2018-11-05T09:33:08.779Z,1010.79
2018-11-05T09:34:08.770Z,1010.80
2018-11-05T09:35:08.752Z,1010.86
2018-11-05T09:36:08.743Z,1010.88
2018-11-05T09:37:08.725Z,1010.86
2018-11-05T09:38:08.714Z,1010.84
2018-11-05T09:39:08.695Z,1010.79
2018-11-05T09:40:08.687Z,1010.84
2018-11-05T09:41:08.669Z,1010.81
2018-11-05T09:42:08.660Z,1010.77
2018-11-05T09:43:08.646Z,1010.75
2018-11-05T09:44:08.633Z,1010.73
2018-11-05T09:45:08.621Z,1010.78
2018-11-05T09:46:08.613Z,1010.76
2018-11-05T09:47:08.594Z,1010.76
2018-11-05T09:48:08.577Z,1010.84
2018-11-05T09:49:08.563Z,1010.79
2018-11-05T09:50:08.550Z,1010.78
2018-11-05T09:51:08.539Z,1010.77
2018-11-05T09:52:08.531Z,1010.73
2018-11-05T09:53:08.516Z,1010.68
2018-11-05T09:54:08.503Z,1010.69
2018-11-05T09:55:08.488Z,1010.71
2018-11-05T09:56:08.477Z,1010.69
2018-11-05T09:57:08.500Z,1010.66
2018-11-05T09:58:08.451Z,1010.66
2018-11-05T09:59:08.439Z,1010.73
2018-11-05T10:00:08.429Z,1010.78
2018-11-05T10:01:08.408Z,1010.74
2018-11-05T10:02:08.432Z,1010.69
2018-11-05T10:03:08.543Z,1010.57
2018-11-05T10:04:08.399Z,1010.46
2018-11-05T10:05:08.617Z,1010.41
2018-11-05T10:06:08.349Z,1010.50
2018-11-05T10:07:08.336Z,1010.52
2018-11-05T10:08:08.325Z,1010.51
2018-11-05T10:09:08.313Z,1010.52
2018-11-05T10:10:08.317Z,1010.52
2018-11-05T10:11:08.289Z,1010.55
2018-11-05T10:12:08.271Z,1010.49
2018-11-05T10:13:08.254Z,1010.49
2018-11-05T10:14:08.244Z,1010.46
2018-11-05T10:15:08.247Z,1010.45
2018-11-05T10:16:08.224Z,1010.40
2018-11-05T10:17:08.213Z,1010.36
2018-11-05T10:18:08.202Z,1010.38
2018-11-05T10:19:08.181Z,1010.44
2018-11-05T10:20:08.172Z,1010.42
2018-11-05T10:21:08.157Z,1010.43
2018-11-05T10:22:08.146Z,1010.41
2018-11-05T10:23:08.132Z,1010.39
2018-11-05T10:24:08.118Z,1010.38
2018-11-05T10:25:08.297Z,1010.35
2018-11-05T10:26:08.109Z,1010.33
2018-11-05T10:27:08.082Z,1010.33
2018-11-05T10:28:08.069Z,1010.29
2018-11-05T10:29:08.053Z,1010.30
2018-11-05T10:30:08.039Z,1010.28
2018-11-05T10:31:08.031Z,1010.26
2018-11-05T10:32:08.066Z,1010.30
2018-11-05T10:33:08.090Z,1010.27
2018-11-05T10:34:07.989Z,1010.16
2018-11-05T10:35:07.978Z,1010.14
2018-11-05T10:36:07.968Z,1010.13
2018-11-05T10:37:07.950Z,1010.15
2018-11-05T10:38:07.936Z,1010.16
2018-11-05T10:39:07.929Z,1010.16
2018-11-05T10:40:07.917Z,1010.12
2018-11-05T10:41:07.898Z,1010.15
2018-11-05T10:42:07.884Z,1010.11
2018-11-05T10:43:07.881Z,1010.12
2018-11-05T10:44:07.893Z,1010.12
2018-11-05T10:45:07.849Z,1010.16
2018-11-05T10:46:07.838Z,1010.19
2018-11-05T10:47:07.819Z,1010.08
2018-11-05T10:48:07.806Z,1010.12
2018-11-05T10:49:07.796Z,1010.14
2018-11-05T10:50:07.780Z,1010.15
2018-11-05T10:51:07.824Z,1010.10
2018-11-05T10:52:08.078Z,1010.08
2018-11-05T10:53:07.736Z,1010.02
2018-11-05T10:54:07.730Z,1010.03
2018-11-05T10:55:07.713Z,1009.99
2018-11-05T10:56:07.701Z,1009.95
2018-11-05T10:57:07.685Z,1009.94
2018-11-05T10:58:07.729Z,1009.88
2018-11-05T10:59:07.656Z,1009.87
2018-11-05T11:00:07.649Z,1009.78
2018-11-05T11:01:07.633Z,1009.80
2018-11-05T11:02:07.619Z,1009.79
2018-11-05T11:03:07.608Z,1009.76
2018-11-05T11:04:07.693Z,1009.76
2018-11-05T11:05:07.578Z,1009.75
2018-11-05T11:06:07.564Z,1009.79
2018-11-05T11:07:07.552Z,1009.78
2018-11-05T11:08:07.538Z,1009.85
2018-11-05T11:09:07.531Z,1009.85
2018-11-05T11:10:07.514Z,1009.82
2018-11-05T11:11:07.508Z,1009.80
2018-11-05T11:12:07.487Z,1009.81
2018-11-05T11:13:07.470Z,1009.72
2018-11-05T11:14:07.456Z,1009.69
2018-11-05T11:15:07.503Z,1009.68
2018-11-05T11:16:07.433Z,1009.65
2018-11-05T11:17:07.421Z,1009.61
2018-11-05T11:18:07.404Z,1009.69
2018-11-05T11:19:07.437Z,1009.65
2018-11-05T11:20:07.375Z,1009.69
2018-11-05T11:21:07.365Z,1009.62
2018-11-05T11:22:07.436Z,1009.59
2018-11-05T11:23:07.334Z,1009.56
2018-11-05T11:24:07.322Z,1009.59
2018-11-05T11:25:07.307Z,1009.62
2018-11-05T11:26:07.293Z,1009.56
2018-11-05T11:27:07.279Z,1009.54
2018-11-05T11:28:07.345Z,1009.50
2018-11-05T11:29:07.337Z,1009.53
2018-11-05T11:30:07.236Z,1009.46
2018-11-05T11:31:07.228Z,1009.42
2018-11-05T11:32:07.210Z,1009.37
2018-11-05T11:33:07.194Z,1009.40
2018-11-05T11:34:07.178Z,1009.38
2018-11-05T11:35:07.168Z,1009.33
2018-11-05T11:36:07.162Z,1009.36
2018-11-05T11:37:07.233Z,1009.35
2018-11-05T11:38:07.126Z,1009.31
2018-11-05T11:39:07.113Z,1009.37
2018-11-05T11:40:07.098Z,1009.43
2018-11-05T11:41:07.084Z,1009.42
2018-11-05T11:42:07.072Z,1009.41
2018-11-05T11:43:07.059Z,1009.35
2018-11-05T11:44:07.050Z,1009.38
2018-11-05T11:45:07.029Z,1009.34
2018-11-05T11:46:07.017Z,1009.31
2018-11-05T11:47:07.001Z,1009.26
2018-11-05T11:48:06.998Z,1009.27
2018-11-05T11:49:06.971Z,1009.25
2018-11-05T11:50:06.958Z,1009.24
2018-11-05T11:51:06.948Z,1009.25
2018-11-05T11:52:06.926Z,1009.23
2018-11-05T11:53:07.001Z,1009.20
2018-11-05T11:54:06.902Z,1009.15
2018-11-05T11:55:06.930Z,1009.09
2018-11-05T11:56:06.873Z,1009.10
2018-11-05T11:57:06.857Z,1009.09
2018-11-05T11:58:06.843Z,1009.04
2018-11-05T11:59:06.857Z,1009.02
2018-11-05T12:00:06.815Z,1009.00
2018-11-05T12:01:06.803Z,1008.98
2018-11-05T12:02:06.790Z,1008.96
2018-11-05T12:03:06.802Z,1008.95
2018-11-05T12:04:06.805Z,1008.93
2018-11-05T12:05:06.781Z,1008.90
2018-11-05T12:06:06.745Z,1008.88